createdAt,value
2022-10-13T00:00:35.365Z,15.98
2022-10-13T00:03:03.214Z,16.02
2022-10-13T00:05:30.979Z,16.77
2022-10-13T00:07:57.727Z,16.80
2022-10-13T00:10:25.105Z,17.30
2022-10-13T00:12:52.006Z,16.00
2022-10-13T00:15:22.104Z,16.13
2022-10-13T00:17:48.762Z,15.35
2022-10-13T00:20:15.404Z,16.85
2022-10-13T00:22:42.178Z,16.40
2022-10-13T00:25:09.179Z,17.08
2022-10-13T00:27:35.818Z,17.30
2022-10-13T00:30:02.573Z,15.55
2022-10-13T00:32:29.673Z,18.33
2022-10-13T00:34:57.812Z,16.50
2022-10-13T00:37:25.227Z,16.75
2022-10-13T00:39:52.047Z,16.52
2022-10-13T00:42:23.435Z,16.00
2022-10-13T00:45:01.672Z,16.42
2022-10-13T00:47:36.633Z,15.10
2022-10-13T00:50:04.891Z,16.58
2022-10-13T00:52:32.340Z,16.67
2022-10-13T00:54:59.615Z,16.05
2022-10-13T00:57:26.395Z,16.38
2022-10-13T00:59:53.109Z,15.52
2022-10-13T01:02:20.446Z,13.93
2022-10-13T01:04:50.346Z,15.52
2022-10-13T01:07:19.098Z,14.18
2022-10-13T01:09:45.825Z,13.73
2022-10-13T01:12:33.496Z,15.10
2022-10-13T01:15:15.007Z,14.07
2022-10-13T01:18:04.033Z,14.15
2022-10-13T01:20:41.711Z,14.70
2022-10-13T01:23:17.947Z,17.13
2022-10-13T01:26:14.716Z,16.80
2022-10-13T01:29:14.985Z,14.52
2022-10-13T01:31:47.892Z,16.27
2022-10-13T01:34:20.916Z,15.60
2022-10-13T01:36:56.726Z,16.55
2022-10-13T01:39:38.088Z,16.63
2022-10-13T01:42:13.239Z,16.60
2022-10-13T01:44:47.208Z,14.60
2022-10-13T01:47:16.095Z,15.38
2022-10-13T01:49:44.622Z,15.48
2022-10-13T01:52:15.241Z,15.70
2022-10-13T01:54:42.001Z,15.70
2022-10-13T01:57:30.664Z,14.80
2022-10-13T01:59:59.188Z,16.25
2022-10-13T02:02:33.320Z,14.52
2022-10-13T02:08:13.657Z,14.70
2022-10-13T02:10:48.228Z,15.57
2022-10-13T02:13:16.180Z,15.68
2022-10-13T02:15:46.353Z,15.15
2022-10-13T02:18:15.299Z,15.80
2022-10-13T02:20:42.590Z,16.90
2022-10-13T02:23:14.323Z,15.90
2022-10-13T02:25:41.797Z,16.40
2022-10-13T02:28:08.924Z,15.60
2022-10-13T02:30:42.559Z,16.40
2022-10-13T02:33:09.771Z,16.55
2022-10-13T02:35:37.843Z,18.10
2022-10-13T02:38:05.218Z,17.13
2022-10-13T02:40:31.995Z,16.02
2022-10-13T02:42:58.619Z,16.85
2022-10-13T02:45:25.476Z,16.83
2022-10-13T02:47:54.921Z,17.73
2022-10-13T02:50:21.644Z,18.05
2022-10-13T02:52:50.401Z,17.40
2022-10-13T02:55:17.063Z,16.77
2022-10-13T02:57:45.676Z,17.20
2022-10-13T03:00:13.101Z,17.77
2022-10-13T03:02:39.743Z,18.77
2022-10-13T03:05:06.591Z,17.48
2022-10-13T03:07:33.209Z,17.05
2022-10-13T03:09:59.842Z,19.88
2022-10-13T03:12:26.446Z,18.33
2022-10-13T03:14:53.071Z,19.40
2022-10-13T03:17:19.814Z,18.50
2022-10-13T03:19:46.444Z,17.48
2022-10-13T03:22:17.276Z,18.85
2022-10-13T03:24:44.225Z,17.58
2022-10-13T03:27:11.223Z,18.83
2022-10-13T03:29:38.226Z,19.20
2022-10-13T03:32:05.207Z,17.70
2022-10-13T03:34:31.928Z,17.55
2022-10-13T03:37:04.129Z,17.73
2022-10-13T03:39:34.541Z,18.15
2022-10-13T03:42:01.208Z,18.77
2022-10-13T03:44:28.133Z,17.00
2022-10-13T03:46:54.801Z,16.90
2022-10-13T03:49:21.600Z,17.38
2022-10-13T03:51:48.304Z,17.13
2022-10-13T03:54:15.238Z,18.50
2022-10-13T03:56:44.841Z,16.95
2022-10-13T03:59:13.403Z,17.65
2022-10-13T04:01:40.479Z,17.42
2022-10-13T04:04:07.986Z,18.25
2022-10-13T04:06:34.603Z,17.52
2022-10-13T04:09:01.230Z,17.85
2022-10-13T04:11:27.862Z,18.30
2022-10-13T04:13:56.937Z,17.58
2022-10-13T04:16:25.700Z,17.30
2022-10-13T04:18:56.139Z,16.63
2022-10-13T04:21:23.791Z,17.77
2022-10-13T04:23:50.712Z,16.63
2022-10-13T04:26:20.443Z,16.67
2022-10-13T04:28:48.344Z,15.68
2022-10-13T04:31:15.268Z,16.88
2022-10-13T04:33:42.133Z,16.58
2022-10-13T04:36:10.873Z,17.52
2022-10-13T04:38:37.804Z,16.48
2022-10-13T04:41:05.725Z,16.52
2022-10-13T04:43:33.340Z,16.23
2022-10-13T04:46:14.655Z,16.52
2022-10-13T04:48:41.663Z,16.98
2022-10-13T04:51:10.656Z,16.95
2022-10-13T04:53:37.810Z,16.70
2022-10-13T04:56:13.048Z,17.15
2022-10-13T05:01:07.971Z,16.50
2022-10-13T05:03:34.913Z,14.93
2022-10-13T05:06:02.102Z,15.30
2022-10-13T05:08:28.920Z,16.48
2022-10-13T05:11:01.131Z,18.58
2022-10-13T05:13:29.682Z,16.75
2022-10-13T05:15:58.013Z,16.40
2022-10-13T05:18:24.879Z,16.25
2022-10-13T05:20:51.611Z,15.25
2022-10-13T05:23:18.873Z,16.98
2022-10-13T05:25:45.540Z,16.05
2022-10-13T05:28:14.639Z,15.70
2022-10-13T05:30:41.331Z,16.35
2022-10-13T05:33:08.133Z,15.95
2022-10-13T05:35:34.743Z,15.68
2022-10-13T05:38:01.370Z,14.38
2022-10-13T05:40:30.891Z,15.05
2022-10-13T05:43:00.524Z,14.25
2022-10-13T05:45:28.236Z,15.18
2022-10-13T05:47:54.961Z,14.93
2022-10-13T05:50:21.556Z,14.68
2022-10-13T05:52:48.202Z,15.95
2022-10-13T05:55:15.984Z,15.10
2022-10-13T05:57:48.900Z,16.45
2022-10-13T06:00:17.612Z,17.48
2022-10-13T06:02:54.487Z,15.77
2022-10-13T06:05:22.302Z,16.77
2022-10-13T06:07:52.757Z,16.05
2022-10-13T06:10:19.558Z,16.25
2022-10-13T06:12:46.177Z,15.75
2022-10-13T06:15:13.032Z,16.73
2022-10-13T06:17:40.088Z,16.58
2022-10-13T06:20:07.604Z,16.75
2022-10-13T06:22:35.872Z,14.82
2022-10-13T06:25:03.510Z,15.88
2022-10-13T06:27:31.271Z,15.88
2022-10-13T06:29:59.158Z,15.82
2022-10-13T06:32:25.854Z,15.65
2022-10-13T06:34:52.496Z,15.25
2022-10-13T06:37:21.198Z,14.80
2022-10-13T06:39:51.620Z,16.25
2022-10-13T06:42:18.850Z,14.95
2022-10-13T06:44:46.429Z,15.05
2022-10-13T06:47:13.039Z,14.60
2022-10-13T06:49:39.694Z,15.27
2022-10-13T06:52:06.376Z,15.98
2022-10-13T06:54:32.987Z,15.77
2022-10-13T06:56:59.813Z,14.57
2022-10-13T06:59:27.819Z,15.23
2022-10-13T07:01:54.688Z,15.40
2022-10-13T07:04:21.422Z,15.00
2022-10-13T07:06:48.107Z,14.98
2022-10-13T07:09:14.770Z,15.48
2022-10-13T07:11:44.321Z,14.65
2022-10-13T07:14:11.037Z,14.25
2022-10-13T07:16:37.620Z,15.18
2022-10-13T07:19:04.799Z,14.52
2022-10-13T07:21:31.540Z,15.52
2022-10-13T07:23:58.240Z,15.20
2022-10-13T07:26:24.882Z,14.20
2022-10-13T07:28:51.646Z,14.05
2022-10-13T07:31:20.234Z,15.10
2022-10-13T07:33:48.732Z,15.50
2022-10-13T07:36:17.051Z,14.23
2022-10-13T07:38:43.717Z,14.20
2022-10-13T07:41:11.613Z,14.30
2022-10-13T07:43:38.787Z,14.10
2022-10-13T07:46:06.940Z,14.73
2022-10-13T07:48:34.824Z,14.13
2022-10-13T07:51:10.668Z,14.43
2022-10-13T07:53:37.507Z,14.27
2022-10-13T07:56:06.185Z,13.57
2022-10-13T07:58:33.621Z,13.05
2022-10-13T08:01:01.907Z,14.43
2022-10-13T08:03:30.299Z,14.02
2022-10-13T08:05:59.355Z,15.23
2022-10-13T08:08:26.153Z,15.25
2022-10-13T08:13:23.397Z,13.55
2022-10-13T08:15:50.119Z,13.95
2022-10-13T08:18:16.775Z,12.35
2022-10-13T08:20:45.177Z,13.18
2022-10-13T08:23:13.073Z,12.93
2022-10-13T08:25:48.286Z,12.25
2022-10-13T08:28:20.820Z,12.23
2022-10-13T08:33:14.496Z,12.43
2022-10-13T08:35:42.612Z,12.63
2022-10-13T08:38:09.549Z,12.95
2022-10-13T08:40:37.782Z,13.20
2022-10-13T08:43:08.881Z,12.05
2022-10-13T08:45:41.224Z,10.77
2022-10-13T08:48:27.261Z,11.48
2022-10-13T08:50:58.440Z,10.65
2022-10-13T08:53:31.926Z,10.43
2022-10-13T08:56:02.516Z,10.45
2022-10-13T08:58:32.767Z,10.93
2022-10-13T09:01:02.333Z,10.18
2022-10-13T09:03:29.952Z,10.50
2022-10-13T09:05:58.811Z,10.02
2022-10-13T09:08:27.139Z,10.20
2022-10-13T09:10:54.090Z,9.90
2022-10-13T09:13:22.288Z,9.20
2022-10-13T09:15:52.729Z,9.68
2022-10-13T09:18:28.660Z,10.10
2022-10-13T09:21:09.958Z,8.50
2022-10-13T09:23:39.573Z,9.40
2022-10-13T09:26:09.845Z,10.40
2022-10-13T09:28:38.554Z,8.75
2022-10-13T09:31:10.263Z,9.18
2022-10-13T09:33:40.120Z,8.27
2022-10-13T09:36:11.241Z,8.80
2022-10-13T09:38:39.336Z,8.52
2022-10-13T09:41:09.030Z,7.63
2022-10-13T09:43:41.979Z,7.45
2022-10-13T09:46:43.734Z,7.53
2022-10-13T09:49:28.500Z,8.05
2022-10-13T09:52:20.621Z,9.48
2022-10-13T09:54:59.296Z,7.97
2022-10-13T09:57:34.952Z,8.85
2022-10-13T10:00:23.217Z,8.90
2022-10-13T10:02:52.640Z,8.43
2022-10-13T10:05:19.259Z,8.70
2022-10-13T10:07:48.696Z,9.00
2022-10-13T10:10:33.247Z,8.23
2022-10-13T10:13:02.894Z,8.70
2022-10-13T10:15:52.681Z,7.93
2022-10-13T10:18:26.066Z,8.80
2022-10-13T10:21:08.003Z,8.48
2022-10-13T10:23:46.657Z,8.32
2022-10-13T10:26:23.204Z,8.68
2022-10-13T10:28:59.100Z,7.65
2022-10-13T10:31:33.444Z,8.68
2022-10-13T10:34:03.141Z,7.97
2022-10-13T10:36:38.728Z,8.70
2022-10-13T10:39:27.051Z,9.02
2022-10-13T10:42:41.525Z,8.38
2022-10-13T10:45:30.029Z,8.50
2022-10-13T10:48:04.664Z,7.78
2022-10-13T10:50:33.345Z,8.30
2022-10-13T10:53:27.604Z,7.70
2022-10-13T10:56:00.982Z,7.68
2022-10-13T10:58:59.375Z,7.25
2022-10-13T11:01:32.091Z,7.78
2022-10-13T11:04:21.842Z,7.35
2022-10-13T11:06:52.880Z,8.00
2022-10-13T11:09:40.868Z,7.82
2022-10-13T11:12:19.941Z,8.75
2022-10-13T11:15:08.239Z,7.90
2022-10-13T11:17:39.680Z,8.65
2022-10-13T11:20:21.570Z,9.00
2022-10-13T11:23:17.226Z,8.70
2022-10-13T11:25:47.802Z,8.55
2022-10-13T11:28:23.676Z,7.43
2022-10-13T11:30:51.602Z,7.35
2022-10-13T11:33:37.074Z,7.80
2022-10-13T11:36:31.794Z,7.95
2022-10-13T11:39:16.983Z,8.13
2022-10-13T11:41:58.897Z,7.80
2022-10-13T11:44:41.096Z,8.25
2022-10-13T11:47:17.064Z,7.63
2022-10-13T11:49:52.702Z,7.70
2022-10-13T11:52:36.368Z,8.30
2022-10-13T11:55:11.066Z,6.50
2022-10-13T11:57:37.692Z,6.85
2022-10-13T12:00:04.800Z,6.07
2022-10-13T12:02:51.621Z,6.60
2022-10-13T12:05:25.357Z,6.18
2022-10-13T12:07:53.688Z,5.78
2022-10-13T12:10:32.059Z,6.25
2022-10-13T12:13:00.376Z,6.47
2022-10-13T12:15:43.769Z,5.35
2022-10-13T12:18:27.042Z,6.18
2022-10-13T12:20:58.596Z,6.28
2022-10-13T12:23:26.442Z,6.97
2022-10-13T12:25:58.236Z,6.13
2022-10-13T12:28:28.268Z,6.18
2022-10-13T12:30:57.605Z,6.32
2022-10-13T12:33:32.967Z,6.03
2022-10-13T12:36:23.089Z,5.78
2022-10-13T12:38:53.097Z,6.30
2022-10-13T12:41:27.117Z,5.85
2022-10-13T12:43:54.442Z,6.03
2022-10-13T12:46:43.221Z,6.82
2022-10-13T12:51:50.476Z,6.35
2022-10-13T12:54:20.528Z,6.05
2022-10-13T12:56:47.369Z,5.47
2022-10-13T12:59:17.295Z,5.75
2022-10-13T13:01:59.217Z,6.90
2022-10-13T13:04:46.551Z,5.70
2022-10-13T13:07:32.947Z,5.20
2022-10-13T13:10:08.447Z,5.72
2022-10-13T13:12:36.386Z,6.00
2022-10-13T13:15:34.410Z,6.15
2022-10-13T13:18:29.191Z,6.22
2022-10-13T13:20:56.400Z,5.75
2022-10-13T13:23:23.846Z,6.45
2022-10-13T13:26:20.817Z,6.03
2022-10-13T13:28:50.057Z,5.70
2022-10-13T13:31:40.210Z,5.18
2022-10-13T13:36:46.209Z,4.72
2022-10-13T13:39:18.783Z,5.30
2022-10-13T13:41:45.551Z,4.97
2022-10-13T13:44:12.327Z,4.70
2022-10-13T13:46:39.388Z,5.55
2022-10-13T13:49:08.828Z,5.63
2022-10-13T13:51:35.576Z,6.07
2022-10-13T13:54:02.428Z,5.43
2022-10-13T13:56:29.248Z,6.43
2022-10-13T13:58:56.002Z,5.75
2022-10-13T14:01:23.719Z,5.85
2022-10-13T14:03:51.651Z,5.60
2022-10-13T14:06:25.525Z,5.63
2022-10-13T14:08:52.496Z,6.30
2022-10-13T14:11:19.392Z,5.63
2022-10-13T14:13:46.480Z,6.03
2022-10-13T14:16:24.229Z,5.10
2022-10-13T14:18:54.010Z,5.72
2022-10-13T14:21:25.760Z,5.25
2022-10-13T14:23:56.851Z,5.20
2022-10-13T14:26:23.915Z,5.38
2022-10-13T14:28:50.644Z,5.07
2022-10-13T14:31:17.409Z,5.13
2022-10-13T14:33:48.748Z,5.88
2022-10-13T14:36:18.755Z,5.50
2022-10-13T14:38:45.457Z,5.20
2022-10-13T14:41:12.144Z,5.32
2022-10-13T14:43:38.786Z,5.75
2022-10-13T14:46:06.295Z,6.07
2022-10-13T14:48:34.172Z,6.07
2022-10-13T14:51:10.571Z,6.20
2022-10-13T14:53:42.254Z,5.70
2022-10-13T14:56:26.558Z,6.32
2022-10-13T14:58:59.842Z,5.43
2022-10-13T15:01:33.760Z,5.50
2022-10-13T15:04:01.358Z,5.20
2022-10-13T15:06:29.497Z,5.07
2022-10-13T15:08:56.367Z,7.13
2022-10-13T15:11:24.434Z,8.07
2022-10-13T15:13:51.562Z,6.95
2022-10-13T15:16:23.634Z,7.22
2022-10-13T15:18:50.856Z,7.70
2022-10-13T15:21:18.120Z,8.23
2022-10-13T15:23:45.163Z,8.85
2022-10-13T15:26:13.188Z,9.85
2022-10-13T15:28:42.140Z,10.27
2022-10-13T15:31:10.082Z,9.27
2022-10-13T15:33:39.556Z,9.65
2022-10-13T15:36:06.395Z,9.40
2022-10-13T15:38:33.057Z,9.57
2022-10-13T15:41:01.026Z,9.95
2022-10-13T15:43:28.047Z,9.90
2022-10-13T15:45:57.281Z,10.43
2022-10-13T15:48:24.170Z,10.52
2022-10-13T15:50:50.770Z,10.05
2022-10-13T15:53:17.787Z,10.00
2022-10-13T15:55:44.464Z,11.13
2022-10-13T15:58:13.670Z,11.05
2022-10-13T16:00:41.475Z,11.68
2022-10-13T16:03:10.825Z,11.07
2022-10-13T16:05:40.578Z,11.80
2022-10-13T16:08:07.214Z,11.90
2022-10-13T16:10:33.898Z,12.27
2022-10-13T16:13:00.635Z,14.45
2022-10-13T16:15:29.197Z,18.35
2022-10-13T16:17:55.827Z,16.33
2022-10-13T16:20:22.526Z,15.73
2022-10-13T16:22:49.172Z,17.05
2022-10-13T16:25:15.987Z,14.50
2022-10-13T16:27:44.503Z,16.52
2022-10-13T16:30:11.881Z,16.52
2022-10-13T16:32:39.760Z,14.02
2022-10-13T16:35:07.253Z,14.93
2022-10-13T16:37:34.574Z,14.43
2022-10-13T16:40:01.244Z,15.43
2022-10-13T16:42:28.135Z,13.88
2022-10-13T16:44:54.742Z,14.63
2022-10-13T16:47:21.593Z,14.63
2022-10-13T16:49:48.550Z,15.02
2022-10-13T16:52:16.395Z,18.17
2022-10-13T16:54:43.742Z,16.30
2022-10-13T16:57:10.735Z,15.27
2022-10-13T16:59:37.510Z,14.68
2022-10-13T17:02:04.341Z,13.77
2022-10-13T17:04:31.368Z,14.27
2022-10-13T17:06:58.471Z,14.02
2022-10-13T17:09:25.132Z,13.38
2022-10-13T17:11:51.834Z,14.93
2022-10-13T17:14:18.540Z,14.07
2022-10-13T17:16:47.956Z,14.23
2022-10-13T17:19:14.583Z,13.35
2022-10-13T17:21:41.276Z,14.48
2022-10-13T17:24:08.640Z,14.93
2022-10-13T17:26:35.371Z,13.82
2022-10-13T17:29:02.190Z,14.30
2022-10-13T17:31:29.039Z,14.77
2022-10-13T17:33:55.716Z,14.95
2022-10-13T17:36:28.131Z,15.60
2022-10-13T17:38:56.741Z,15.95
2022-10-13T17:41:23.967Z,14.48
2022-10-13T17:43:51.828Z,15.80
2022-10-13T17:46:41.595Z,16.08
2022-10-13T17:49:11.163Z,15.27
2022-10-13T17:51:38.463Z,14.18
2022-10-13T17:54:14.445Z,14.27
2022-10-13T17:56:42.563Z,15.40
2022-10-13T17:59:09.960Z,17.98
2022-10-13T18:01:36.893Z,15.90
2022-10-13T18:04:09.311Z,15.93
2022-10-13T18:06:40.532Z,15.23
2022-10-13T18:09:09.411Z,15.05
2022-10-13T18:11:36.589Z,15.35
2022-10-13T18:14:03.537Z,16.38
2022-10-13T18:16:30.636Z,16.50
2022-10-13T18:18:57.285Z,16.23
2022-10-13T18:21:27.559Z,16.95
2022-10-13T18:23:55.815Z,16.00
2022-10-13T18:26:22.900Z,17.42
2022-10-13T18:28:50.438Z,17.33
2022-10-13T18:31:28.270Z,17.75
2022-10-13T18:33:57.967Z,17.13
2022-10-13T18:36:35.603Z,16.73
2022-10-13T18:39:12.173Z,17.05
2022-10-13T18:41:39.663Z,16.45
2022-10-13T18:44:06.987Z,16.42
2022-10-13T18:46:34.906Z,16.10
2022-10-13T18:49:02.815Z,16.25
2022-10-13T18:51:35.615Z,16.67
2022-10-13T18:54:03.011Z,16.70
2022-10-13T18:56:30.418Z,17.50
2022-10-13T18:58:59.971Z,16.08
2022-10-13T19:01:28.882Z,15.63
2022-10-13T19:03:56.111Z,15.63
2022-10-13T19:06:27.223Z,15.57
2022-10-13T19:08:56.447Z,16.25
2022-10-13T19:11:23.751Z,15.60
2022-10-13T19:13:51.169Z,14.65
2022-10-13T19:16:20.432Z,16.80
2022-10-13T19:18:47.519Z,15.77
2022-10-13T19:21:14.643Z,16.20
2022-10-13T19:23:41.433Z,16.73
2022-10-13T19:26:24.873Z,14.60
2022-10-13T19:28:56.201Z,14.63
2022-10-13T19:31:24.995Z,15.13
2022-10-13T19:33:52.748Z,16.67
2022-10-13T19:36:30.324Z,15.55
2022-10-13T19:39:01.051Z,15.65
2022-10-13T19:41:29.407Z,14.93
2022-10-13T19:43:56.154Z,14.80
2022-10-13T19:46:24.199Z,14.73
2022-10-13T19:48:51.271Z,14.52
2022-10-13T19:51:18.316Z,16.05
2022-10-13T19:53:45.091Z,17.42
2022-10-13T19:56:26.618Z,16.63
2022-10-13T19:58:54.065Z,15.98
2022-10-13T20:01:22.294Z,17.17
2022-10-13T20:03:49.167Z,18.10
2022-10-13T20:06:16.652Z,18.05
2022-10-13T20:08:44.975Z,16.67
2022-10-13T20:11:15.731Z,17.63
2022-10-13T20:13:45.528Z,17.80
2022-10-13T20:16:15.656Z,17.20
2022-10-13T20:18:42.591Z,16.65
2022-10-13T20:21:11.651Z,17.67
2022-10-13T20:23:40.635Z,16.35
2022-10-13T20:26:09.446Z,16.38
2022-10-13T20:28:42.744Z,18.40
2022-10-13T20:31:12.876Z,17.33
2022-10-13T20:33:40.463Z,16.13
2022-10-13T20:36:10.564Z,15.45
2022-10-13T20:38:37.317Z,17.42
2022-10-13T20:41:11.353Z,16.67
2022-10-13T20:43:38.012Z,15.95
2022-10-13T20:46:06.545Z,16.45
2022-10-13T20:48:57.736Z,15.93
2022-10-13T20:51:23.098Z,15.60
2022-10-13T20:53:49.804Z,17.60
2022-10-13T20:56:19.514Z,17.63
2022-10-13T20:58:47.018Z,16.33
2022-10-13T21:01:14.174Z,16.92
2022-10-13T21:03:40.851Z,17.08
2022-10-13T21:06:10.576Z,16.30
2022-10-13T21:08:37.395Z,16.30
2022-10-13T21:11:05.736Z,16.98
2022-10-13T21:13:32.812Z,16.52
2022-10-13T21:16:12.767Z,15.38
2022-10-13T21:18:39.478Z,15.55
2022-10-13T21:21:10.542Z,14.88
2022-10-13T21:23:39.376Z,15.60
2022-10-13T21:26:08.578Z,15.98
2022-10-13T21:28:39.095Z,16.08
2022-10-13T21:31:08.294Z,16.17
2022-10-13T21:33:36.909Z,15.98
2022-10-13T21:36:08.432Z,16.80
2022-10-13T21:38:35.167Z,15.98
2022-10-13T21:41:04.826Z,16.00
2022-10-13T21:43:31.538Z,14.57
2022-10-13T21:45:58.135Z,14.60
2022-10-13T21:48:25.212Z,16.25
2022-10-13T21:50:51.825Z,16.35
2022-10-13T21:53:18.575Z,16.08
2022-10-13T21:55:45.217Z,16.83
2022-10-13T21:58:11.939Z,16.35
2022-10-13T22:00:38.910Z,17.38
2022-10-13T22:03:05.606Z,17.25
2022-10-13T22:05:32.276Z,17.30
2022-10-13T22:07:58.886Z,17.92
2022-10-13T22:10:25.582Z,16.63
2022-10-13T22:12:54.183Z,17.52
2022-10-13T22:15:20.769Z,16.13
2022-10-13T22:17:47.586Z,16.25
2022-10-13T22:20:14.292Z,17.88
2022-10-13T22:22:40.973Z,17.60
2022-10-13T22:25:08.373Z,15.65
2022-10-13T22:27:35.684Z,16.80
2022-10-13T22:30:02.409Z,16.02
2022-10-13T22:32:29.129Z,15.82
2022-10-13T22:34:55.716Z,15.85
2022-10-13T22:37:23.057Z,15.90
2022-10-13T22:39:49.904Z,14.45
2022-10-13T22:42:16.762Z,15.48
2022-10-13T22:44:43.415Z,17.35
2022-10-13T22:47:10.051Z,16.45
2022-10-13T22:49:36.690Z,15.43
2022-10-13T22:52:03.901Z,16.20
2022-10-13T22:54:30.599Z,16.63
2022-10-13T22:56:57.244Z,17.70
2022-10-13T22:59:23.879Z,16.10
2022-10-13T23:01:50.515Z,16.17
2022-10-13T23:04:17.165Z,16.50
2022-10-13T23:06:43.822Z,15.98
2022-10-13T23:09:12.734Z,17.35
2022-10-13T23:11:39.767Z,16.27
2022-10-13T23:14:08.133Z,16.77
2022-10-13T23:16:34.765Z,15.98
2022-10-13T23:19:01.592Z,15.98
2022-10-13T23:21:29.755Z,17.05
2022-10-13T23:23:57.024Z,16.10
2022-10-13T23:26:24.074Z,16.33
2022-10-13T23:28:51.183Z,14.85
2022-10-13T23:31:18.398Z,16.40
2022-10-13T23:33:45.069Z,15.57
2022-10-13T23:36:30.990Z,15.63
2022-10-13T23:38:59.587Z,14.57
2022-10-13T23:41:26.750Z,14.65
2022-10-13T23:43:54.115Z,15.60
2022-10-13T23:46:20.944Z,16.48
2022-10-13T23:48:47.750Z,14.65
2022-10-13T23:51:17.108Z,14.25
2022-10-13T23:53:44.099Z,15.85
2022-10-13T23:56:11.757Z,15.30
2022-10-13T23:58:42.766Z,14.98
